sensor_id;sensor_type;location;lat;lon;timestamp;pressure;altitude;pressure_sealevel;temperature;humidity
66164;BME280;52962;51.088;3.096;2023-04-01T00:02:18;99250.72;;;9.91;100.00
66164;BME280;52962;51.088;3.096;2023-04-01T00:04:46;99257.63;;;10.34;100.00
66164;BME280;52962;51.088;3.096;2023-04-01T00:07:15;99255.97;;;9.91;100.00
66164;BME280;52962;51.088;3.096;2023-04-01T00:09:44;99254.25;;;9.83;100.00
66164;BME280;52962;51.088;3.096;2023-04-01T00:12:12;99257.75;;;9.79;100.00
66164;BME280;52962;51.088;3.096;2023-04-01T00:14:40;99257.75;;;9.82;100.00
66164;BME280;52962;51.088;3.096;2023-04-01T00:17:08;99269.16;;;9.75;100.00
66164;BME280;52962;51.088;3.096;2023-04-01T00:19:36;99263.91;;;9.63;100.00
66164;BME280;52962;51.088;3.096;2023-04-01T00:22:04;99270.91;;;9.69;100.00
66164;BME280;52962;51.088;3.096;2023-04-01T00:24:34;99275.28;;;9.65;100.00
66164;BME280;52962;51.088;3.096;2023-04-01T00:27:02;99273.53;;;9.70;100.00
66164;BME280;52962;51.088;3.096;2023-04-01T00:29:30;99273.53;;;9.61;100.00
66164;BME280;52962;51.088;3.096;2023-04-01T00:31:59;99276.16;;;9.63;100.00
66164;BME280;52962;51.088;3.096;2023-04-01T00:34:27;99278.78;;;9.58;100.00
66164;BME280;52962;51.088;3.096;2023-04-01T00:36:56;99284.06;;;9.67;100.00
66164;BME280;52962;51.088;3.096;2023-04-01T00:39:24;99292.81;;;9.66;100.00
66164;BME280;52962;51.088;3.096;2023-04-01T00:41:54;99298.94;;;9.64;100.00
66164;BME280;52962;51.088;3.096;2023-04-01T00:44:28;99298.94;;;9.59;100.00
66164;BME280;52962;51.088;3.096;2023-04-01T00:46:56;99294.56;;;9.52;100.00
66164;BME280;52962;51.088;3.096;2023-04-01T00:49:29;99290.19;;;9.57;100.00
66164;BME280;52962;51.088;3.096;2023-04-01T00:52:00;99297.19;;;9.61;100.00
66164;BME280;52962;51.088;3.096;2023-04-01T00:54:31;99305.94;;;9.57;100.00
66164;BME280;52962;51.088;3.096;2023-04-01T00:57:04;99305.06;;;9.61;100.00
66164;BME280;52962;51.088;3.096;2023-04-01T00:59:37;99305.94;;;9.60;100.00
66164;BME280;52962;51.088;3.096;2023-04-01T01:02:10;99318.22;;;9.52;100.00
66164;BME280;52962;51.088;3.096;2023-04-01T01:04:39;99313.84;;;9.59;100.00
66164;BME280;52962;51.088;3.096;2023-04-01T01:07:10;99313.84;;;9.59;100.00
66164;BME280;52962;51.088;3.096;2023-04-01T01:09:45;99312.97;;;9.58;100.00
66164;BME280;52962;51.088;3.096;2023-04-01T01:12:20;99321.72;;;9.63;100.00
66164;BME280;52962;51.088;3.096;2023-04-01T01:15:00;99319.09;;;9.60;100.00
66164;BME280;52962;51.088;3.096;2023-04-01T01:17:39;99317.34;;;9.59;100.00
66164;BME280;52962;51.088;3.096;2023-04-01T01:20:29;99333.97;;;9.60;100.00
66164;BME280;52962;51.088;3.096;2023-04-01T01:23:22;99331.34;;;9.60;100.00
66164;BME280;52962;51.088;3.096;2023-04-01T01:26:12;99326.09;;;9.55;100.00
66164;BME280;52962;51.088;3.096;2023-04-01T01:28:55;99348.88;;;9.61;100.00
66164;BME280;52962;51.088;3.096;2023-04-01T01:31:34;99339.25;;;9.64;100.00
66164;BME280;52962;51.088;3.096;2023-04-01T01:34:14;99346.25;;;9.61;100.00
66164;BME280;52962;51.088;3.096;2023-04-01T01:36:49;99347.13;;;9.63;100.00
66164;BME280;52962;51.088;3.096;2023-04-01T01:39:21;99341.00;;;9.61;100.00
66164;BME280;52962;51.088;3.096;2023-04-01T01:41:56;99349.75;;;9.55;100.00
66164;BME280;52962;51.088;3.096;2023-04-01T01:44:28;99355.00;;;9.58;100.00
66164;BME280;52962;51.088;3.096;2023-04-01T01:46:58;99355.88;;;9.51;100.00
66164;BME280;52962;51.088;3.096;2023-04-01T01:49:28;99362.88;;;9.54;100.00
66164;BME280;52962;51.088;3.096;2023-04-01T01:52:00;99360.25;;;9.50;100.00
66164;BME280;52962;51.088;3.096;2023-04-01T01:54:29;99358.50;;;9.52;100.00
66164;BME280;52962;51.088;3.096;2023-04-01T01:57:01;99374.25;;;9.45;100.00
66164;BME280;52962;51.088;3.096;2023-04-01T01:59:33;99373.41;;;9.50;100.00
66164;BME280;52962;51.088;3.096;2023-04-01T02:02:03;99383.03;;;9.50;100.00
66164;BME280;52962;51.088;3.096;2023-04-01T02:04:37;99374.28;;;9.54;100.00
66164;BME280;52962;51.088;3.096;2023-04-01T02:07:12;99390.91;;;9.50;100.00
66164;BME280;52962;51.088;3.096;2023-04-01T02:09:42;99387.41;;;9.48;100.00
66164;BME280;52962;51.088;3.096;2023-04-01T02:12:12;99386.53;;;9.49;100.00
66164;BME280;52962;51.088;3.096;2023-04-01T02:14:46;99395.28;;;9.46;100.00
66164;BME280;52962;51.088;3.096;2023-04-01T02:17:19;99401.44;;;9.55;100.00
66164;BME280;52962;51.088;3.096;2023-04-01T02:19:50;99394.41;;;9.55;100.00
66164;BME280;52962;51.088;3.096;2023-04-01T02:22:23;99403.19;;;9.54;100.00
66164;BME280;52962;51.088;3.096;2023-04-01T02:24:54;99409.31;;;9.55;100.00
66164;BME280;52962;51.088;3.096;2023-04-01T02:27:25;99411.06;;;9.60;100.00
66164;BME280;52962;51.088;3.096;2023-04-01T02:29:53;99415.44;;;9.57;100.00
66164;BME280;52962;51.088;3.096;2023-04-01T02:32:22;99420.69;;;9.55;100.00
66164;BME280;52962;51.088;3.096;2023-04-01T02:34:50;99422.44;;;9.55;100.00
66164;BME280;52962;51.088;3.096;2023-04-01T02:37:18;99432.97;;;9.51;100.00
66164;BME280;52962;51.088;3.096;2023-04-01T02:39:47;99424.19;;;9.51;100.00
66164;BME280;52962;51.088;3.096;2023-04-01T02:42:16;99426.84;;;9.54;100.00
66164;BME280;52962;51.088;3.096;2023-04-01T02:44:44;99431.22;;;9.58;100.00
66164;BME280;52962;51.088;3.096;2023-04-01T02:47:13;99427.72;;;9.59;100.00
66164;BME280;52962;51.088;3.096;2023-04-01T02:49:41;99436.47;;;9.61;100.00
66164;BME280;52962;51.088;3.096;2023-04-01T02:52:09;99441.72;;;9.57;100.00
66164;BME280;52962;51.088;3.096;2023-04-01T02:54:38;99446.97;;;9.50;100.00
66164;BME280;52962;51.088;3.096;2023-04-01T02:57:07;99443.44;;;9.44;100.00
66164;BME280;52962;51.088;3.096;2023-04-01T02:59:35;99453.97;;;9.50;100.00
66164;BME280;52962;51.088;3.096;2023-04-01T03:02:03;99457.47;;;9.44;100.00
66164;BME280;52962;51.088;3.096;2023-04-01T03:04:32;99454.84;;;9.43;100.00
66164;BME280;52962;51.088;3.096;2023-04-01T03:07:00;99462.72;;;9.46;100.00
66164;BME280;52962;51.088;3.096;2023-04-01T03:09:28;99471.47;;;9.42;100.00
66164;BME280;52962;51.088;3.096;2023-04-01T03:11:56;99471.44;;;9.37;100.00
66164;BME280;52962;51.088;3.096;2023-04-01T03:14:27;99476.72;;;9.39;100.00
66164;BME280;52962;51.088;3.096;2023-04-01T03:16:56;99474.97;;;9.38;100.00
66164;BME280;52962;51.088;3.096;2023-04-01T03:19:24;99488.09;;;9.39;100.00
66164;BME280;52962;51.088;3.096;2023-04-01T03:21:52;99485.47;;;9.36;100.00
66164;BME280;52962;51.088;3.096;2023-04-01T03:24:21;99498.59;;;9.36;100.00
66164;BME280;52962;51.088;3.096;2023-04-01T03:26:49;99499.47;;;9.37;100.00
66164;BME280;52962;51.088;3.096;2023-04-01T03:29:18;99496.84;;;9.38;100.00
66164;BME280;52962;51.088;3.096;2023-04-01T03:31:47;99504.72;;;9.37;100.00
66164;BME280;52962;51.088;3.096;2023-04-01T03:34:16;99511.75;;;9.38;100.00
66164;BME280;52962;51.088;3.096;2023-04-01T03:36:44;99512.63;;;9.41;100.00
66164;BME280;52962;51.088;3.096;2023-04-01T03:39:12;99515.25;;;9.40;100.00
66164;BME280;52962;51.088;3.096;2023-04-01T03:41:41;99522.28;;;9.45;100.00
66164;BME280;52962;51.088;3.096;2023-04-01T03:44:09;99522.25;;;9.42;100.00
66164;BME280;52962;51.088;3.096;2023-04-01T03:46:37;99522.25;;;9.38;100.00
66164;BME280;52962;51.088;3.096;2023-04-01T03:49:08;99520.50;;;9.43;100.00
66164;BME280;52962;51.088;3.096;2023-04-01T03:51:39;99536.25;;;9.38;100.00
66164;BME280;52962;51.088;3.096;2023-04-01T03:54:07;99531.03;;;9.43;100.00
66164;BME280;52962;51.088;3.096;2023-04-01T03:56:36;99543.25;;;9.38;100.00
66164;BME280;52962;51.088;3.096;2023-04-01T03:59:05;99540.63;;;9.38;100.00
66164;BME280;52962;51.088;3.096;2023-04-01T04:01:34;99545.03;;;9.36;100.00
66164;BME280;52962;51.088;3.096;2023-04-01T04:04:02;99545.00;;;9.25;100.00
66164;BME280;52962;51.088;3.096;2023-04-01T04:06:33;99556.41;;;9.32;100.00
66164;BME280;52962;51.088;3.096;2023-04-01T04:09:01;99542.38;;;9.30;100.00
66164;BME280;52962;51.088;3.096;2023-04-01T04:11:30;99549.41;;;9.32;100.00
66164;BME280;52962;51.088;3.096;2023-04-01T04:13:59;99557.28;;;9.31;100.00
66164;BME280;52962;51.088;3.096;2023-04-01T04:16:28;99564.28;;;9.29;100.00
66164;BME280;52962;51.088;3.096;2023-04-01T04:19:00;99563.38;;;9.24;100.00
66164;BME280;52962;51.088;3.096;2023-04-01T04:21:28;99571.25;;;9.24;100.00
66164;BME280;52962;51.088;3.096;2023-04-01T04:23:58;99579.13;;;9.24;100.00
66164;BME280;52962;51.088;3.096;2023-04-01T04:26:29;99567.78;;;9.29;100.00
66164;BME280;52962;51.088;3.096;2023-04-01T04:28:59;99576.50;;;9.27;100.00
66164;BME280;52962;51.088;3.096;2023-04-01T04:31:27;99578.25;;;9.22;100.00
66164;BME280;52962;51.088;3.096;2023-04-01T04:33:59;99577.41;;;9.29;100.00
66164;BME280;52962;51.088;3.096;2023-04-01T04:36:32;99581.78;;;9.30;100.00
66164;BME280;52962;51.088;3.096;2023-04-01T04:39:02;99581.78;;;9.27;100.00
66164;BME280;52962;51.088;3.096;2023-04-01T04:41:33;99580.91;;;9.26;100.00
66164;BME280;52962;51.088;3.096;2023-04-01T04:44:04;99585.28;;;9.26;100.00
66164;BME280;52962;51.088;3.096;2023-04-01T04:46:32;99578.25;;;9.22;100.00
66164;BME280;52962;51.088;3.096;2023-04-01T04:49:10;99589.66;;;9.25;100.00
66164;BME280;52962;51.088;3.096;2023-04-01T04:51:39;99592.25;;;9.24;100.00
66164;BME280;52962;51.088;3.096;2023-04-01T04:54:09;99587.88;;;9.24;100.00
66164;BME280;52962;51.088;3.096;2023-04-01T04:56:55;99600.13;;;9.24;100.00
66164;BME280;52962;51.088;3.096;2023-04-01T04:59:25;99604.50;;;9.22;100.00
66164;BME280;52962;51.088;3.096;2023-04-01T05:02:03;99604.53;;;9.25;100.00
66164;BME280;52962;51.088;3.096;2023-04-01T05:04:34;99608.88;;;9.23;100.00
66164;BME280;52962;51.088;3.096;2023-04-01T05:07:04;99613.25;;;9.21;100.00
66164;BME280;52962;51.088;3.096;2023-04-01T05:09:34;99619.41;;;9.23;100.00
66164;BME280;52962;51.088;3.096;2023-04-01T05:12:03;99616.78;;;9.23;100.00
66164;BME280;52962;51.088;3.096;2023-04-01T05:14:51;99621.13;;;9.17;100.00
66164;BME280;52962;51.088;3.096;2023-04-01T05:17:19;99631.59;;;9.16;100.00
66164;BME280;52962;51.088;3.096;2023-04-01T05:19:47;99636.00;;;9.20;100.00
66164;BME280;52962;51.088;3.096;2023-04-01T05:22:16;99629.91;;;9.21;100.00
66164;BME280;52962;51.088;3.096;2023-04-01T05:24:45;99635.94;;;9.11;100.00
66164;BME280;52962;51.088;3.096;2023-04-01T05:27:14;99639.50;;;9.17;100.00
66164;BME280;52962;51.088;3.096;2023-04-01T05:29:42;99646.50;;;9.15;100.00
66164;BME280;52962;51.088;3.096;2023-04-01T05:32:30;99658.75;;;9.16;100.00
66164;BME280;52962;51.088;3.096;2023-04-01T05:34:59;99650.88;;;9.18;100.00
66164;BME280;52962;51.088;3.096;2023-04-01T05:37:28;99655.22;;;9.13;100.00
66164;BME280;52962;51.088;3.096;2023-04-01T05:39:58;99663.09;;;9.13;100.00
66164;BME280;52962;51.088;3.096;2023-04-01T05:42:27;99663.97;;;9.13;100.00
66164;BME280;52962;51.088;3.096;2023-04-01T05:44:55;99677.97;;;9.12;100.00
66164;BME280;52962;51.088;3.096;2023-04-01T05:47:42;99667.50;;;9.15;100.00
66164;BME280;52962;51.088;3.096;2023-04-01T05:50:11;99675.38;;;9.14;100.00
66164;BME280;52962;51.088;3.096;2023-04-01T05:52:39;99678.84;;;9.10;100.00
66164;BME280;52962;51.088;3.096;2023-04-01T05:55:09;99687.59;;;9.09;100.00
66164;BME280;52962;51.088;3.096;2023-04-01T05:57:37;99691.09;;;9.11;100.00
66164;BME280;52962;51.088;3.096;2023-04-01T06:00:07;99694.59;;;9.11;100.00
66164;BME280;52962;51.088;3.096;2023-04-01T06:02:38;99693.75;;;9.14;100.00
66164;BME280;52962;51.088;3.096;2023-04-01T06:05:14;99698.06;;;9.04;100.00
66164;BME280;52962;51.088;3.096;2023-04-01T06:07:45;99698.97;;;9.09;100.00
66164;BME280;52962;51.088;3.096;2023-04-01T06:10:17;99699.81;;;9.07;100.00
66164;BME280;52962;51.088;3.096;2023-04-01T06:12:59;99712.03;;;9.02;100.00
66164;BME280;52962;51.088;3.096;2023-04-01T06:15:36;99706.78;;;9.02;100.00
66164;BME280;52962;51.088;3.096;2023-04-01T06:18:38;99704.09;;;8.94;100.00
66164;BME280;52962;51.088;3.096;2023-04-01T06:21:33;99702.38;;;8.99;100.00
66164;BME280;52962;51.088;3.096;2023-04-01T06:24:16;99712.88;;;8.98;100.00
66164;BME280;52962;51.088;3.096;2023-04-01T06:26:54;99726.88;;;8.98;100.00
66164;BME280;52962;51.088;3.096;2023-04-01T06:29:44;99725.13;;;8.97;100.00
66164;BME280;52962;51.088;3.096;2023-04-01T06:32:27;99723.38;;;8.99;100.00
66164;BME280;52962;51.088;3.096;2023-04-01T06:35:19;99734.75;;;8.98;100.00
66164;BME280;52962;51.088;3.096;2023-04-01T06:38:04;99739.19;;;9.02;100.00
66164;BME280;52962;51.088;3.096;2023-04-01T06:43:43;99743.53;;;9.02;100.00
66164;BME280;52962;51.088;3.096;2023-04-01T06:46:23;99747.94;;;9.04;100.00
66164;BME280;52962;51.088;3.096;2023-04-01T06:49:24;99749.72;;;9.08;100.00
66164;BME280;52962;51.088;3.096;2023-04-01T06:52:24;99754.00;;;8.96;100.00
66164;BME280;52962;51.088;3.096;2023-04-01T06:55:32;99755.78;;;8.98;100.00
66164;BME280;52962;51.088;3.096;2023-04-01T06:58:26;99763.72;;;9.07;100.00
66164;BME280;52962;51.088;3.096;2023-04-01T07:00:59;99756.72;;;9.06;100.00
66164;BME280;52962;51.088;3.096;2023-04-01T07:03:32;99764.63;;;9.09;100.00
66164;BME280;52962;51.088;3.096;2023-04-01T07:06:04;99766.41;;;9.12;100.00
66164;BME280;52962;51.088;3.096;2023-04-01T07:08:41;99775.19;;;9.15;100.00
66164;BME280;52962;51.088;3.096;2023-04-01T07:11:17;99768.97;;;9.07;100.00
66164;BME280;52962;51.088;3.096;2023-04-01T07:14:16;99768.97;;;9.07;100.00
66164;BME280;52962;51.088;3.096;2023-04-01T07:16:48;99774.25;;;9.10;100.00
66164;BME280;52962;51.088;3.096;2023-04-01T07:19:23;99787.38;;;9.09;100.00
66164;BME280;52962;51.088;3.096;2023-04-01T07:22:04;99785.69;;;9.14;100.00
66164;BME280;52962;51.088;3.096;2023-04-01T07:24:57;99786.53;;;9.11;100.00
66164;BME280;52962;51.088;3.096;2023-04-01T07:27:29;99783.97;;;9.19;100.00
66164;BME280;52962;51.088;3.096;2023-04-01T07:29:57;99793.56;;;9.15;100.00
66164;BME280;52962;51.088;3.096;2023-04-01T07:32:34;99798.88;;;9.22;100.00
66164;BME280;52962;51.088;3.096;2023-04-01T07:35:15;99799.78;;;9.24;100.00
66164;BME280;52962;51.088;3.096;2023-04-01T07:37:56;99805.91;;;9.24;100.00
66164;BME280;52962;51.088;3.096;2023-04-01T07:40:33;99813.84;;;9.30;100.00
66164;BME280;52962;51.088;3.096;2023-04-01T07:43:33;99819.09;;;9.29;100.00
66164;BME280;52962;51.088;3.096;2023-04-01T07:46:44;99816.44;;;9.27;100.00
66164;BME280;52962;51.088;3.096;2023-04-01T07:49:22;99826.03;;;9.22;100.00
66164;BME280;52962;51.088;3.096;2023-04-01T07:51:57;99823.38;;;9.21;100.00
66164;BME280;52962;51.088;3.096;2023-04-01T07:54:35;99828.69;;;9.27;100.00
66164;BME280;52962;51.088;3.096;2023-04-01T07:57:12;99830.47;;;9.28;100.00
66164;BME280;52962;51.088;3.096;2023-04-01T07:59:58;99829.56;;;9.24;100.00
66164;BME280;52962;51.088;3.096;2023-04-01T08:02:52;99849.72;;;9.27;100.00
66164;BME280;52962;51.088;3.096;2023-04-01T08:05:28;99835.75;;;9.31;100.00
66164;BME280;52962;51.088;3.096;2023-04-01T08:08:07;99841.91;;;9.34;100.00
66164;BME280;52962;51.088;3.096;2023-04-01T08:11:14;99853.28;;;9.32;100.00
66164;BME280;52962;51.088;3.096;2023-04-01T08:14:14;99857.53;;;9.21;100.00
66164;BME280;52962;51.088;3.096;2023-04-01T08:17:15;99861.06;;;9.23;100.00
66164;BME280;52962;51.088;3.096;2023-04-01T08:19:56;99865.47;;;9.27;100.00
66164;BME280;52962;51.088;3.096;2023-04-01T08:22:36;99864.63;;;9.29;100.00
66164;BME280;52962;51.088;3.096;2023-04-01T08:25:17;99880.34;;;9.26;100.00
66164;BME280;52962;51.088;3.096;2023-04-01T08:27:48;99876.84;;;9.26;100.00
66164;BME280;52962;51.088;3.096;2023-04-01T08:30:21;99875.91;;;9.21;100.00
66164;BME280;52962;51.088;3.096;2023-04-01T08:32:54;99878.47;;;9.13;100.00
66164;BME280;52962;51.088;3.096;2023-04-01T08:35:29;99890.56;;;8.99;100.00
66164;BME280;52962;51.088;3.096;2023-04-01T08:38:09;99893.41;;;9.17;100.00
66164;BME280;52962;51.088;3.096;2023-04-01T08:40:54;99897.81;;;9.20;100.00
66164;BME280;52962;51.088;3.096;2023-04-01T08:43:54;99904.84;;;9.24;100.00
66164;BME280;52962;51.088;3.096;2023-04-01T08:47:03;99903.19;;;9.33;100.00
66164;BME280;52962;51.088;3.096;2023-04-01T08:49:56;99907.59;;;9.36;100.00
66164;BME280;52962;51.088;3.096;2023-04-01T08:52:54;99905.72;;;9.23;100.00
66164;BME280;52962;51.088;3.096;2023-04-01T08:55:43;99913.53;;;9.16;100.00
66164;BME280;52962;51.088;3.096;2023-04-01T09:01:33;99919.75;;;9.25;100.00
66164;BME280;52962;51.088;3.096;2023-04-01T09:04:30;99923.28;;;9.27;100.00
66164;BME280;52962;51.088;3.096;2023-04-01T09:07:12;99922.44;;;9.31;100.00
66164;BME280;52962;51.088;3.096;2023-04-01T09:10:24;99925.31;;;9.58;100.00
66164;BME280;52962;51.088;3.096;2023-04-01T09:13:14;99922.81;;;9.72;100.00
66164;BME280;52962;51.088;3.096;2023-04-01T09:16:08;99928.09;;;9.72;100.00
66164;BME280;52962;51.088;3.096;2023-04-01T09:19:06;99935.06;;;9.68;100.00
66164;BME280;52962;51.088;3.096;2023-04-01T09:21:58;99933.38;;;9.76;100.00
66164;BME280;52962;51.088;3.096;2023-04-01T09:24:58;99930.88;;;9.92;100.00
66164;BME280;52962;51.088;3.096;2023-04-01T09:27:36;99936.06;;;9.82;100.00
66164;BME280;52962;51.088;3.096;2023-04-01T09:30:52;99929.06;;;9.84;100.00
66164;BME280;52962;51.088;3.096;2023-04-01T09:33:59;99932.59;;;9.85;100.00
66164;BME280;52962;51.088;3.096;2023-04-01T09:36:59;99940.50;;;9.90;100.00
66164;BME280;52962;51.088;3.096;2023-04-01T09:39:35;99942.16;;;9.78;100.00
66164;BME280;52962;51.088;3.096;2023-04-01T09:42:24;99950.94;;;9.80;100.00
66164;BME280;52962;51.088;3.096;2023-04-01T09:45:23;99953.53;;;9.77;100.00
66164;BME280;52962;51.088;3.096;2023-04-01T09:48:08;99949.84;;;9.57;100.00
66164;BME280;52962;51.088;3.096;2023-04-01T09:50:48;99956.66;;;9.40;100.00
66164;BME280;52962;51.088;3.096;2023-04-01T09:53:32;99949.75;;;9.49;100.00
66164;BME280;52962;51.088;3.096;2023-04-01T09:59:30;99969.13;;;9.58;100.00
66164;BME280;52962;51.088;3.096;2023-04-01T10:02:50;99965.69;;;9.65;100.00
66164;BME280;52962;51.088;3.096;2023-04-01T10:05:59;99966.63;;;9.70;100.00
66164;BME280;52962;51.088;3.096;2023-04-01T10:08:39;99974.56;;;9.76;100.00
66164;BME280;52962;51.088;3.096;2023-04-01T10:14:51;99975.47;;;9.78;100.00
66164;BME280;52962;51.088;3.096;2023-04-01T10:17:54;99982.38;;;9.68;100.00
66164;BME280;52962;51.088;3.096;2023-04-01T10:20:46;99979.81;;;9.76;100.00
66164;BME280;52962;51.088;3.096;2023-04-01T10:23:44;99988.78;;;9.95;100.00
66164;BME280;52962;51.088;3.096;2023-04-01T10:26:36;99986.94;;;9.86;100.00
66164;BME280;52962;51.088;3.096;2023-04-01T10:30:01;99987.88;;;9.93;100.00
66164;BME280;52962;51.088;3.096;2023-04-01T10:33:06;99985.34;;;10.05;100.00
66164;BME280;52962;51.088;3.096;2023-04-01T10:46:15;99986.31;;;10.14;100.00
66164;BME280;52962;51.088;3.096;2023-04-01T10:52:27;99999.09;;;9.76;100.00
66164;BME280;52962;51.088;3.096;2023-04-01T10:59:28;100004.63;;;10.02;100.00
66164;BME280;52962;51.088;3.096;2023-04-01T11:12:07;100022.72;;;9.70;100.00
66164;BME280;52962;51.088;3.096;2023-04-01T11:18:10;100028.03;;;9.76;100.00
66164;BME280;52962;51.088;3.096;2023-04-01T11:24:13;100027.38;;;9.99;100.00
66164;BME280;52962;51.088;3.096;2023-04-01T11:27:17;100032.97;;;10.29;100.00
66164;BME280;52962;51.088;3.096;2023-04-01T11:30:05;100034.81;;;10.39;100.00
66164;BME280;52962;51.088;3.096;2023-04-01T11:32:46;100034.75;;;10.33;100.00
66164;BME280;52962;51.088;3.096;2023-04-01T11:35:42;100049.03;;;14.30;100.00
66164;BME280;52962;51.088;3.096;2023-04-01T11:38:22;100028.28;;;23.90;100.00
66164;BME280;52962;51.088;3.096;2023-04-01T11:41:20;99929.63;;;21.90;100.00
66164;BME280;52962;51.088;3.096;2023-04-01T11:44:25;99955.72;;;13.96;100.00
66164;BME280;52962;51.088;3.096;2023-04-01T11:47:14;99955.25;;;13.37;100.00
66164;BME280;52962;51.088;3.096;2023-04-01T11:49:53;99958.03;;;12.93;100.00
66164;BME280;52962;51.088;3.096;2023-04-01T11:52:47;99960.63;;;13.16;100.00
66164;BME280;52962;51.088;3.096;2023-04-01T11:55:26;99956.16;;;13.27;100.00
66164;BME280;52962;51.088;3.096;2023-04-01T11:58:26;99975.69;;;12.73;100.00
66164;BME280;52962;51.088;3.096;2023-04-01T12:01:04;99967.81;;;12.52;100.00
66164;BME280;52962;51.088;3.096;2023-04-01T12:03:50;99978.41;;;12.41;100.00
66164;BME280;52962;51.088;3.096;2023-04-01T12:06:30;99966.00;;;12.75;100.00
66164;BME280;52962;51.088;3.096;2023-04-01T12:09:09;99989.81;;;12.51;100.00
66164;BME280;52962;51.088;3.096;2023-04-01T12:11:46;99993.38;;;12.36;100.00
66164;BME280;52962;51.088;3.096;2023-04-01T12:14:22;99981.88;;;12.72;100.00
66164;BME280;52962;51.088;3.096;2023-04-01T12:16:59;99999.50;;;12.55;100.00
66164;BME280;52962;51.088;3.096;2023-04-01T12:19:39;99995.94;;;12.72;100.00
66164;BME280;52962;51.088;3.096;2023-04-01T12:22:23;100012.69;;;12.55;100.00
66164;BME280;52962;51.088;3.096;2023-04-01T12:25:00;100007.41;;;12.55;100.00
66164;BME280;52962;51.088;3.096;2023-04-01T12:27:37;100018.03;;;12.39;100.00
66164;BME280;52962;51.088;3.096;2023-04-01T12:30:30;100014.50;;;12.28;100.00
66164;BME280;52962;51.088;3.096;2023-04-01T12:36:13;100025.06;;;12.25;100.00
66164;BME280;52962;51.088;3.096;2023-04-01T12:38:59;100023.31;;;12.20;100.00
66164;BME280;52962;51.088;3.096;2023-04-01T12:41:39;100025.94;;;12.29;100.00
66164;BME280;52962;51.088;3.096;2023-04-01T12:44:26;100024.19;;;12.32;100.00
66164;BME280;52962;51.088;3.096;2023-04-01T12:47:38;100025.94;;;12.33;100.00
66164;BME280;52962;51.088;3.096;2023-04-01T12:50:34;100038.28;;;12.34;100.00
66164;BME280;52962;51.088;3.096;2023-04-01T12:53:21;100037.38;;;12.41;100.00
66164;BME280;52962;51.088;3.096;2023-04-01T12:55:54;100036.50;;;12.23;100.00
66164;BME280;52962;51.088;3.096;2023-04-01T12:58:42;100049.69;;;12.12;100.00
66164;BME280;52962;51.088;3.096;2023-04-01T13:01:43;100052.31;;;12.12;100.00
66164;BME280;52962;51.088;3.096;2023-04-01T13:07:32;100049.72;;;12.42;100.00
66164;BME280;52962;51.088;3.096;2023-04-01T13:10:13;100054.09;;;12.34;100.00
66164;BME280;52962;51.088;3.096;2023-04-01T13:12:58;100058.50;;;12.29;100.00
66164;BME280;52962;51.088;3.096;2023-04-01T13:15:36;100051.44;;;12.10;100.00
66164;BME280;52962;51.088;3.096;2023-04-01T13:18:14;100067.25;;;12.05;100.00
66164;BME280;52962;51.088;3.096;2023-04-01T13:20:48;100060.22;;;12.06;100.00
66164;BME280;52962;51.088;3.096;2023-04-01T13:23:33;100066.38;;;12.05;100.00
66164;BME280;52962;51.088;3.096;2023-04-01T13:26:13;100069.03;;;12.14;100.00
66164;BME280;52962;51.088;3.096;2023-04-01T13:28:49;100077.81;;;12.04;100.00
66164;BME280;52962;51.088;3.096;2023-04-01T13:34:20;100083.97;;;12.03;100.00
66164;BME280;52962;51.088;3.096;2023-04-01T13:37:02;100087.47;;;11.93;100.00
66164;BME280;52962;51.088;3.096;2023-04-01T13:39:44;100089.19;;;11.83;100.00
66164;BME280;52962;51.088;3.096;2023-04-01T13:42:22;100083.91;;;11.80;100.00
66164;BME280;52962;51.088;3.096;2023-04-01T13:44:55;100092.63;;;11.70;100.00
66164;BME280;52962;51.088;3.096;2023-04-01T13:50:29;100086.47;;;11.72;100.00
66164;BME280;52962;51.088;3.096;2023-04-01T13:53:24;100087.41;;;11.77;100.00
66164;BME280;52962;51.088;3.096;2023-04-01T13:56:08;100088.31;;;11.81;100.00
66164;BME280;52962;51.088;3.096;2023-04-01T13:58:55;100097.13;;;11.94;100.00
66164;BME280;52962;51.088;3.096;2023-04-01T14:01:32;100099.59;;;11.59;100.00
66164;BME280;52962;51.088;3.096;2023-04-01T14:04:28;100104.00;;;11.58;100.00
66164;BME280;52962;51.088;3.096;2023-04-01T14:07:10;100106.59;;;11.41;100.00
66164;BME280;52962;51.088;3.096;2023-04-01T14:09:56;100104.00;;;11.58;100.00
66164;BME280;52962;51.088;3.096;2023-04-01T14:12:30;100109.41;;;11.78;100.00
66164;BME280;52962;51.088;3.096;2023-04-01T14:15:17;100122.47;;;11.60;100.00
66164;BME280;52962;51.088;3.096;2023-04-01T14:18:06;100111.16;;;11.79;100.00
66164;BME280;52962;51.088;3.096;2023-04-01T14:20:39;100126.84;;;11.53;100.00
66164;BME280;52962;51.088;3.096;2023-04-01T14:23:31;100126.81;;;11.50;100.00
66164;BME280;52962;51.088;3.096;2023-04-01T14:29:21;100134.69;;;11.39;100.00
66164;BME280;52962;51.088;3.096;2023-04-01T14:32:07;100144.44;;;11.60;100.00
66164;BME280;52962;51.088;3.096;2023-04-01T14:34:47;100151.50;;;11.67;100.00
66164;BME280;52962;51.088;3.096;2023-04-01T14:37:30;100146.34;;;11.83;100.00
66164;BME280;52962;51.088;3.096;2023-04-01T14:40:16;100156.78;;;11.67;100.00
66164;BME280;52962;51.088;3.096;2023-04-01T14:43:10;100153.25;;;11.62;100.00
66164;BME280;52962;51.088;3.096;2023-04-01T14:48:55;100149.72;;;11.63;100.00
66164;BME280;52962;51.088;3.096;2023-04-01T14:51:30;100159.34;;;11.55;100.00
66164;BME280;52962;51.088;3.096;2023-04-01T14:54:04;100158.47;;;11.53;100.00
66164;BME280;52962;51.088;3.096;2023-04-01T14:56:42;100174.28;;;11.53;100.00
66164;BME280;52962;51.088;3.096;2023-04-01T14:59:14;100161.06;;;11.39;100.00
66164;BME280;52962;51.088;3.096;2023-04-01T15:01:55;100173.31;;;11.33;100.00
66164;BME280;52962;51.088;3.096;2023-04-01T15:04:53;100169.84;;;11.37;100.00